General Mariano Escobedo International Airport (MTY/MMMY)


Airport Information
Location: Monterrey,
Coordinates: 25.7785 / -100.107
Field Elevation: 1,275ft
Longest Runway: 10,060ft
ILS Approaches: YES
Landing Fees: $2,344 per flight
Jet A Price: $0.43/lbs

Current Weather
METAR:
Not available
TAF: TAF MMMY 010422Z 0106/0212 12005KT P6SM SKC TX30/0121Z TN17/0112Z FM011800 12010KT P6SM SKC FM020300 12005KT P6SM SCT020

No chart available
Flight Arriving
CPX782 MMMX - Benito Juárez International Airport
Mexico Mexico City, Mexico
Flight Aircraft Departing
CPX764
MMMX - Benito Juárez International Airport
Mexico Mexico City, Mexico



Recent Arrivals
Date Flight Type Depart
09/12/2022 CPX764 B738 Benito Juárez Intl (MMMX)
07/09/2022 CPX764 B738 Benito Juárez Intl (MMMX)
06/29/2022 CPX3126 B738 Benito Juárez Intl (MMMX)
Recent Departures
Date Flight Type Arrive
09/12/2022 CPX782 B738 Benito Juárez Intl (MMMX)
07/10/2022 CPX782 B738 Benito Juárez Intl (MMMX)
07/01/2022 CPX3127 B738 Benito Juárez Intl (MMMX)